KLYH/LYH METAR and TAF weather

Enter ICAO airport designator
Station Type Date Time Source
KLYH METAR 2021/08/05 02:54 UTC NOAA

KLYH 050254Z AUTO 06004KT 10SM CLR 21/13 A3013 RMK AO2 SLP193 T02110133 51012


Station Type Date Time Source
KLYH Decoded METAR 2021/08/05 02:54 UTC NOAA

LYNCHBURG REGIONAL AIRPORT, VA, United States (KLYH) 37-19N 079-12W 295M
Aug 04, 2021 - 10:54 PM EDT / 2021.08.05 0254 UTC
Wind: from the ENE (060 degrees) at 5 MPH (4 KT):0
Visibility: 10 mile(s):0
Sky conditions: clear
Temperature: 70.0 F (21.1 C)
Dew Point: 55.9 F (13.3 C)
Relative Humidity: 61%
Pressure (altimeter): 30.13 in. Hg (1020 hPa)
Pressure tendency: 0.04 inches (1.2 hPa) higher than three hours ago
ob: KLYH 050254Z AUTO 06004KT 10SM CLR 21/13 A3013 RMK AO2 SLP193 T02110133 51012
cycle: 3

Station Type Date Time Source
KLYH TAF 2021/08/04 18:36 UTC NOAA

TAF KLYH 041735Z 0418/0518 06009G15KT P6SM SCT045
FM050100 00000KT P6SM FEW050 SCT150
FM051400 VRB04KT P6SM FEW200

Example: see airport list